Norton, KS

5:40 PM CST on December 22, 2014 (GMT -0600)
Sarrada Farms 0.1 mi W | Change Station
CLOSE
Current Station
Personal Weather Station
Location: Logan, KS
Elevation: 2021 ft
Nearby Weather Stations

Elev 2021 ft 39.66 °N, 99.58 °W | Updated 3 seconds ago

Partly Cloudy
Partly Cloudy
45.0 °F
Feels Like 39 °F
N
12.1
Wind Variable Wind from NW
Gusts 14.0 mph

Today
High -- | Low -- °F
--% Chance of Precip.
Yesterday
High -- | Low -- °F
Precip. -- in
7:57 AM 5:18 PM
New Moon, 1% visible
Pressure 29.59 in
Visibility 10.0 miles
Clouds Clear
Windchill 39 °F
Dew Point 28 °F
Humidity 50%
Rainfall 0.00 in
Snow Depth Not available.
UV 0 out of 12
Pollen .10 out of 12
Air Quality Not available.
Flu Activity Not available.
METAR KHLC 222253Z AUTO 31017G24KT 10SM CLR 09/M04 A2958 RMK AO2 PK WND 32028/2225 RAB00E13 SLP019 P0000 T00891044

More Conditions Fewer Conditions

Pressure 29.59 in
Visibility 10.0 miles
Clouds Clear
Windchill 39 °F
Dew Point 28 °F
Humidity 50%
Rainfall 0.00 in
Snow Depth Not available.
UV 0 out of 12
Pollen .10 out of 12
Air Quality Not available.
Flu Activity Not available.
METAR KHLC 222253Z AUTO 31017G24KT 10SM CLR 09/M04 A2958 RMK AO2 PK WND 32028/2225 RAB00E13 SLP019 P0000 T00891044

More Conditions Fewer Conditions

10-Day Weather Forecast

Almanac

Astronomy

Dec. 22, 2014 Rise Set
Actual Time
Civil Twilight
Nautical Twilight
Astronomical Twilight
Moon
Length of Visible Light
Length of Day
Tomorrow will be .
, % of the Moon is Illuminated

Today's Extremes

State Highs State Lows

Community

WunderPhotos

Upload Photos

1,779,723 photos uploaded!

WunderBlogs® & News

Nearby

Air Quality

  Air Quality AQ Index Pollutant
Not available.

Snow Depth

Station Depth Elevation

Earthquake Activity

City Distance Mag. Time & Date
Minimum magnitude displayed is 2.5.

Coastal Water Temperatures

Place Temperature

Nearby Weather Stations